Time;durP1;ratioP1;P1;durP2;ratioP2;P2;SDS_P1;SDS_P2;PMS_P1;PMS_P2;Temp;Humidity;BMP_temperature;BMP_pressure;BME280_temperature;BME280_humidity;BME280_pressure;Samples;Min_cycle;Max_cycle;Signal;HPM_P1;HPM_P2
2022/01/21 00:00:26;;;;;;;1.00;0.70;;;;;;;19.63;38.24;102537.47;4232316;28;20096;-47
2022/01/21 00:02:28;;;;;;;1.10;0.90;;;;;;;19.62;38.08;102546.88;4227724;28;20040;-49
2022/01/21 00:04:29;;;;;;;0.93;0.65;;;;;;;19.59;38.48;102552.88;4244903;27;20047;-47
2022/01/21 00:08:52;;;;;;;0.90;0.80;;;;;;;19.60;38.01;102549.03;4244244;27;20092;-48
2022/01/21 00:10:54;;;;;;;0.82;0.80;;;;;;;19.57;38.16;102555.03;4250149;27;20051;-47
2022/01/21 00:12:56;;;;;;;0.70;0.70;;;;;;;19.57;38.35;102554.19;4249871;27;20039;-46
2022/01/21 00:14:58;;;;;;;0.63;0.63;;;;;;;19.51;38.41;102548.47;4249689;27;20043;-46
2022/01/21 00:17:00;;;;;;;0.80;0.80;;;;;;;19.55;37.97;102551.63;4250861;27;20043;-48
2022/01/21 00:19:13;;;;;;;2.58;0.80;;;;;;;19.52;38.01;102546.56;4250158;27;20084;-48
2022/01/21 00:30:33;;;;;;;1.35;0.95;;;;;;;19.50;38.34;102562.59;4237695;27;20089;-48
2022/01/21 00:32:34;;;;;;;1.15;0.85;;;;;;;19.49;38.27;102585.91;4232011;27;20047;-46
2022/01/21 00:34:36;;;;;;;1.92;0.80;;;;;;;19.46;37.96;102575.25;4239423;27;20024;-47
2022/01/21 00:36:37;;;;;;;0.88;0.77;;;;;;;19.45;38.25;102587.44;4219932;28;20040;-47
2022/01/21 00:38:41;;;;;;;1.05;0.95;;;;;;;19.43;38.28;102604.34;4232823;27;20035;-51
2022/01/21 00:40:43;;;;;;;1.30;1.08;;;;;;;19.43;38.11;102609.88;4231159;28;20043;-43
2022/01/21 00:42:52;;;;;;;1.10;0.98;;;;;;;19.44;38.26;102608.78;4247522;27;20039;-50
2022/01/21 00:45:03;;;;;;;1.58;0.90;;;;;;;19.43;37.98;102609.03;4221401;27;20073;-47
2022/01/21 00:47:06;;;;;;;1.48;0.70;;;;;;;19.43;38.17;102603.50;4248567;27;20088;-48
2022/01/21 00:49:10;;;;;;;1.33;0.80;;;;;;;19.42;37.91;102599.00;4246387;27;20076;-48
2022/01/21 00:51:11;;;;;;;1.38;0.73;;;;;;;19.41;38.28;102602.84;4232653;28;20028;-47
2022/01/21 00:53:15;;;;;;;1.40;0.77;;;;;;;19.40;38.31;102612.25;4229714;28;20389;-47
2022/01/21 00:55:16;;;;;;;0.82;0.70;;;;;;;19.30;38.34;102587.81;4215078;28;20044;-47
2022/01/21 00:57:18;;;;;;;1.65;0.80;;;;;;;19.38;38.13;102614.41;4227348;28;20464;-46
2022/01/21 00:59:22;;;;;;;2.38;0.95;;;;;;;19.37;38.02;102629.38;4230047;27;20040;-44
2022/01/21 01:01:23;;;;;;;0.70;0.70;;;;;;;19.36;38.17;102638.78;4223034;28;20040;-49
2022/01/21 01:03:25;;;;;;;2.40;0.90;;;;;;;19.36;37.86;102641.56;4235503;27;20036;-47
2022/01/21 01:05:26;;;;;;;0.82;0.77;;;;;;;19.33;38.13;102634.53;4247182;27;20035;-46
2022/01/21 01:07:28;;;;;;;1.15;0.70;;;;;;;19.33;37.91;102639.22;4227368;28;20156;-47
2022/01/21 01:09:29;;;;;;;0.95;0.70;;;;;;;19.31;38.00;102650.56;4232024;28;20066;-48
2022/01/21 01:20:37;;;;;;;3.13;0.93;;;;;;;19.27;37.95;102671.53;4232133;28;20105;-44
2022/01/21 01:22:49;;;;;;;7.32;1.20;;;;;;;19.26;38.23;102670.69;4232064;28;20085;-45
2022/01/21 01:29:12;;;;;;;6.78;1.00;;;;;;;19.25;37.82;102674.56;4232192;28;20104;-45
2022/01/21 01:31:13;;;;;;;2.75;1.05;;;;;;;19.26;37.97;102686.50;4231082;28;20039;-45
2022/01/21 01:33:22;;;;;;;2.28;1.02;;;;;;;19.24;38.13;102683.97;4231325;28;20032;-45
2022/01/21 01:35:25;;;;;;;3.75;0.80;;;;;;;19.22;38.22;102677.78;4230839;28;20096;-45
2022/01/21 01:39:44;;;;;;;2.05;1.08;;;;;;;19.18;38.51;102695.09;4215318;28;20453;-46
2022/01/21 01:42:52;;;;;;;1.60;0.85;;;;;;;19.10;38.71;102699.00;4231065;28;20039;-44
2022/01/21 01:51:12;;;;;;;3.40;0.90;;;;;;;19.04;38.74;102709.09;4231515;28;20377;-45
2022/01/21 01:53:16;;;;;;;2.75;0.95;;;;;;;19.06;38.88;102719.97;4230774;28;20027;-46
2022/01/21 01:55:17;;;;;;;1.58;0.80;;;;;;;19.09;39.32;102733.38;4230688;28;20047;-46
2022/01/21 01:57:19;;;;;;;2.72;0.80;;;;;;;19.11;39.02;102727.63;4230588;28;20092;-48
2022/01/21 01:59:20;;;;;;;3.58;0.90;;;;;;;19.13;39.18;102720.75;4230013;28;20097;-47
2022/01/21 02:01:22;;;;;;;3.30;1.00;;;;;;;19.14;39.02;102719.69;4230735;28;20081;-46
2022/01/21 02:03:24;;;;;;;1.13;0.80;;;;;;;19.04;39.30;102700.75;4230594;28;20039;-46
2022/01/21 02:05:25;;;;;;;1.67;0.80;;;;;;;19.27;39.39;102727.91;4230857;28;20035;-48
2022/01/21 02:07:26;;;;;;;4.57;0.93;;;;;;;19.35;39.24;102726.78;4230685;28;20527;-47
2022/01/21 02:09:31;;;;;;;1.42;0.73;;;;;;;19.42;39.10;102729.47;4230517;28;20092;-45
2022/01/21 02:11:32;;;;;;;3.08;0.82;;;;;;;19.48;38.92;102734.13;4230213;28;20405;-46
2022/01/21 02:13:40;;;;;;;3.22;1.05;;;;;;;19.53;38.70;102737.06;4231094;28;20473;-46
2022/01/21 02:15:42;;;;;;;1.33;0.80;;;;;;;19.56;38.71;102736.59;4230953;28;20301;-47
2022/01/21 02:22:05;;;;;;;6.43;1.08;;;;;;;19.52;38.28;102757.59;4229086;27;20092;-46
2022/01/21 02:24:11;;;;;;;4.63;1.05;;;;;;;19.49;37.78;102755.25;4238065;27;20610;-44
2022/01/21 02:26:12;;;;;;;7.57;1.05;;;;;;;19.46;37.83;102761.25;4240843;27;20035;-45
2022/01/21 02:28:16;;;;;;;2.30;1.00;;;;;;;19.44;37.82;102763.44;4231844;27;20040;-45
2022/01/21 02:30:20;;;;;;;3.63;0.88;;;;;;;19.43;37.68;102758.97;4242060;27;20107;-47
2022/01/21 02:32:22;;;;;;;5.10;0.82;;;;;;;19.41;37.35;102761.94;4242736;27;20101;-48
2022/01/21 02:34:24;;;;;;;2.08;0.90;;;;;;;19.41;37.73;102766.66;4235671;27;20047;-50
2022/01/21 02:36:29;;;;;;;7.00;1.20;;;;;;;19.22;37.48;102749.94;4245221;27;20174;-45
2022/01/21 02:38:30;;;;;;;2.20;0.77;;;;;;;19.41;37.37;102774.97;4233140;27;20158;-48
2022/01/21 02:40:34;;;;;;;3.83;1.10;;;;;;;19.40;36.90;102764.97;4237141;27;20183;-46
2022/01/21 02:42:36;;;;;;;3.53;0.97;;;;;;;19.42;36.89;102782.22;4241274;27;20080;-48
2022/01/21 02:44:40;;;;;;;7.22;0.90;;;;;;;19.38;36.90;102779.06;4244114;27;20047;-47
2022/01/21 02:46:44;;;;;;;2.53;1.50;;;;;;;19.42;36.81;102785.00;4246593;27;20571;-46
2022/01/21 02:48:45;;;;;;;1.92;0.88;;;;;;;19.41;36.91;102792.47;4237582;28;20043;-49
2022/01/21 02:50:46;;;;;;;2.17;1.10;;;;;;;19.41;36.55;102800.81;4246011;28;20095;-50
2022/01/21 02:53:10;;;;;;;3.20;0.95;;;;;;;19.42;36.64;102812.75;4238024;27;20051;-48
2022/01/21 02:55:12;;;;;;;6.18;0.80;;;;;;;19.42;36.47;102813.59;4220972;28;20019;-48
2022/01/21 02:57:13;;;;;;;1.98;1.02;;;;;;;19.43;36.47;102820.03;4231567;28;20039;-49
2022/01/21 02:59:15;;;;;;;2.83;0.93;;;;;;;19.42;36.69;102821.09;4234757;28;20043;-49
2022/01/21 03:01:18;;;;;;;3.83;1.15;;;;;;;19.36;36.85;102814.53;4234625;28;20553;-50
2022/01/21 03:03:19;;;;;;;2.25;1.02;;;;;;;19.41;36.56;102822.19;4244280;28;20080;-51
2022/01/21 03:05:21;;;;;;;1.67;0.90;;;;;;;19.36;36.38;102816.44;4241936;28;20115;-46
2022/01/21 03:07:22;;;;;;;2.33;1.15;;;;;;;19.38;36.69;102826.28;4233161;28;20084;-45
2022/01/21 03:09:23;;;;;;;2.35;0.80;;;;;;;19.40;36.28;102820.47;4211617;28;20044;-47
2022/01/21 03:11:27;;;;;;;1.90;0.98;;;;;;;19.41;36.36;102823.03;4235025;28;20036;-47
2022/01/21 03:13:28;;;;;;;1.63;0.88;;;;;;;19.41;36.55;102831.34;4215327;28;20031;-48
2022/01/21 03:15:30;;;;;;;1.50;0.80;;;;;;;19.37;36.39;102832.03;4233138;28;20107;-47
2022/01/21 03:17:31;;;;;;;5.18;1.10;;;;;;;19.42;36.43;102844.16;4237970;28;20036;-46
2022/01/21 03:19:32;;;;;;;1.20;0.85;;;;;;;19.42;36.69;102851.63;4211245;28;20040;-45
2022/01/21 03:21:34;;;;;;;3.03;0.90;;;;;;;19.41;36.70;102861.03;4232195;28;20039;-49
2022/01/21 03:23:35;;;;;;;3.45;0.95;;;;;;;19.42;36.64;102852.47;4246488;28;20031;-46
2022/01/21 03:25:37;;;;;;;2.15;0.70;;;;;;;19.41;36.25;102855.50;4226184;28;20193;-48
2022/01/21 03:27:38;;;;;;;2.50;1.20;;;;;;;19.40;36.71;102853.78;4240275;28;20043;-47
2022/01/21 03:29:40;;;;;;;4.50;0.80;;;;;;;19.37;36.32;102855.09;4229297;28;20405;-46
2022/01/21 03:31:41;;;;;;;1.13;0.65;;;;;;;19.41;36.46;102869.38;4244483;28;20072;-48
2022/01/21 03:33:43;;;;;;;3.15;1.00;;;;;;;19.41;36.43;102872.16;4245062;28;20043;-47
2022/01/21 03:35:45;;;;;;;3.30;0.88;;;;;;;19.41;36.66;102866.59;4228977;28;20088;-46
2022/01/21 03:37:46;;;;;;;5.80;0.95;;;;;;;19.42;36.59;102873.84;4247348;28;20051;-46
2022/01/21 03:39:47;;;;;;;2.05;0.80;;;;;;;19.41;36.58;102872.16;4227666;28;20040;-47
2022/01/21 03:41:49;;;;;;;1.90;0.82;;;;;;;19.42;36.69;102866.34;4232051;28;20093;-46
2022/01/21 03:43:53;;;;;;;1.30;0.77;;;;;;;19.40;36.36;102874.06;4227509;28;20047;-46
2022/01/21 03:45:55;;;;;;;0.93;0.80;;;;;;;19.41;36.38;102872.16;4230165;28;20035;-46
2022/01/21 03:47:56;;;;;;;2.45;1.10;;;;;;;19.38;36.50;102862.38;4239006;28;20425;-45
2022/01/21 03:49:59;;;;;;;3.85;1.00;;;;;;;19.41;36.23;102872.16;4242244;28;20127;-47
2022/01/21 03:52:00;;;;;;;4.70;1.02;;;;;;;19.38;36.73;102872.59;4247214;28;20019;-48
2022/01/21 03:54:02;;;;;;;1.58;0.82;;;;;;;19.40;36.64;102876.84;4236337;28;20099;-47
2022/01/21 03:56:04;;;;;;;2.88;0.95;;;;;;;19.39;36.39;102880.72;4233476;28;20515;-44
2022/01/21 03:58:07;;;;;;;1.98;0.88;;;;;;;19.39;36.42;102885.41;4237710;28;20532;-49
2022/01/21 04:00:12;;;;;;;1.23;0.77;;;;;;;19.36;36.77;102877.53;4224033;27;20451;-47
2022/01/21 04:02:13;;;;;;;4.13;0.80;;;;;;;19.34;36.78;102877.75;4242032;27;20048;-48
2022/01/21 04:04:14;;;;;;;2.85;0.80;;;;;;;19.31;36.77;102878.19;4240729;27;20373;-48
2022/01/21 04:06:19;;;;;;;1.85;0.93;;;;;;;19.33;36.75;102886.28;4249391;27;20503;-45
2022/01/21 04:08:20;;;;;;;4.82;1.00;;;;;;;19.36;36.53;102885.84;4223505;27;20023;-49
2022/01/21 04:10:22;;;;;;;3.17;0.95;;;;;;;19.35;36.66;102886.94;4237395;27;20031;-50
2022/01/21 04:12:24;;;;;;;1.77;1.10;;;;;;;19.34;36.55;102893.56;4248142;27;20428;-45
2022/01/21 04:14:31;;;;;;;2.80;1.10;;;;;;;19.33;36.68;102892.69;4239575;27;20790;-49
2022/01/21 04:16:33;;;;;;;1.88;0.77;;;;;;;19.34;36.71;102899.97;4234704;27;20040;-49
2022/01/21 04:18:34;;;;;;;1.63;1.00;;;;;;;19.34;36.53;102890.78;4235080;27;20084;-45
2022/01/21 04:20:36;;;;;;;5.05;1.20;;;;;;;19.33;36.45;102897.41;4229603;27;20031;-48
2022/01/21 04:22:37;;;;;;;3.50;0.90;;;;;;;19.29;36.48;102892.31;4247722;27;20072;-48
2022/01/21 04:24:40;;;;;;;0.77;0.65;;;;;;;19.32;36.44;102890.16;4236245;27;20478;-50
2022/01/21 04:26:41;;;;;;;2.08;1.02;;;;;;;19.31;36.97;102883.75;4249042;27;20035;-45
2022/01/21 04:28:42;;;;;;;1.02;0.80;;;;;;;19.30;36.64;102885.69;4238270;27;20089;-46
2022/01/21 04:30:44;;;;;;;2.28;0.85;;;;;;;19.29;36.85;102886.75;4240951;27;20035;-45
2022/01/21 04:32:48;;;;;;;2.53;0.85;;;;;;;19.24;36.50;102872.69;4234338;27;20066;-49
2022/01/21 04:34:50;;;;;;;1.40;0.90;;;;;;;19.21;36.60;102862.03;4227555;27;20090;-44
2022/01/21 04:36:51;;;;;;;2.13;0.93;;;;;;;19.26;36.89;102869.69;4246008;27;20031;-44
2022/01/21 04:38:55;;;;;;;1.77;1.00;;;;;;;19.23;36.71;102865.41;4231302;27;20096;-44
2022/01/21 04:41:17;;;;;;;2.05;0.75;;;;;;;19.25;36.70;102863.28;4245839;27;20039;-46
2022/01/21 04:48:09;;;;;;;2.20;0.90;;;;;;;19.23;36.65;102865.41;4243806;27;20084;-47
2022/01/21 04:50:13;;;;;;;1.70;0.90;;;;;;;19.24;36.86;102875.47;4248029;27;20065;-46
2022/01/21 04:52:15;;;;;;;2.30;1.05;;;;;;;19.23;36.97;102875.69;4233985;27;20198;-48
2022/01/21 04:54:16;;;;;;;2.10;0.95;;;;;;;19.23;36.73;102882.06;4243729;27;20035;-49
2022/01/21 04:56:21;;;;;;;1.35;0.90;;;;;;;19.21;36.65;102887.00;4230575;27;20051;-46
2022/01/21 04:58:22;;;;;;;2.72;1.05;;;;;;;19.19;36.86;102880.81;4224645;27;20032;-47
2022/01/21 05:00:23;;;;;;;3.53;1.10;;;;;;;19.20;36.92;102890.88;4225868;28;20508;-48
2022/01/21 05:02:27;;;;;;;2.28;1.13;;;;;;;19.18;37.00;102879.13;4231827;27;20097;-51
2022/01/21 05:04:28;;;;;;;2.97;1.20;;;;;;;19.20;36.70;102885.31;4236794;27;20107;-48
2022/01/21 05:06:36;;;;;;;1.75;0.88;;;;;;;19.16;36.97;102881.28;4220505;28;20051;-45
2022/01/21 05:08:48;;;;;;;2.00;1.02;;;;;;;19.17;36.84;102877.44;4238749;27;20140;-49
2022/01/21 05:10:49;;;;;;;2.00;1.15;;;;;;;19.16;37.13;102874.88;4249049;27;20427;-49
2022/01/21 05:12:51;;;;;;;2.45;1.10;;;;;;;19.14;36.73;102877.84;4227536;28;20451;-46
2022/01/21 05:15:10;;;;;;;1.77;1.08;;;;;;;19.14;37.14;102877.84;4231392;27;20040;-45
2022/01/21 05:17:13;;;;;;;1.77;0.88;;;;;;;19.14;36.73;102877.84;4228836;28;20035;-46
2022/01/21 05:19:17;;;;;;;1.70;1.08;;;;;;;19.12;36.70;102880.03;4230851;27;20036;-47
2022/01/21 05:21:19;;;;;;;1.55;0.93;;;;;;;19.12;37.13;102882.78;4229509;27;20043;-46
2022/01/21 05:23:20;;;;;;;2.40;1.08;;;;;;;19.09;37.05;102874.06;4226432;28;20092;-44
2022/01/21 05:25:22;;;;;;;2.60;1.20;;;;;;;19.09;37.07;102880.44;4226350;28;20073;-46
2022/01/21 05:27:23;;;;;;;1.80;1.20;;;;;;;19.06;36.82;102883.69;4230715;28;20035;-46
2022/01/21 05:29:27;;;;;;;3.30;1.10;;;;;;;19.04;37.08;102891.38;4230648;28;20093;-46
2022/01/21 05:31:29;;;;;;;2.17;1.17;;;;;;;19.04;37.08;102888.59;4230685;28;20439;-43
2022/01/21 05:33:31;;;;;;;3.03;1.05;;;;;;;19.04;37.06;102889.44;4230749;28;20039;-45
2022/01/21 05:35:33;;;;;;;1.70;1.00;;;;;;;19.04;36.99;102896.91;4220777;28;20117;-46
2022/01/21 05:37:36;;;;;;;3.80;1.25;;;;;;;19.03;36.95;102898.84;4230380;28;20043;-49
2022/01/21 05:39:37;;;;;;;2.25;0.82;;;;;;;19.02;37.21;102901.84;4230167;28;20538;-45
2022/01/21 05:41:39;;;;;;;2.50;1.38;;;;;;;19.00;36.67;102904.81;4230486;28;20414;-46
2022/01/21 05:43:45;;;;;;;2.88;1.15;;;;;;;18.99;36.79;102902.28;4228297;28;20097;-45
2022/01/21 05:48:07;;;;;;;2.13;1.13;;;;;;;19.00;37.09;102913.16;4234245;27;20076;-47
2022/01/21 05:50:08;;;;;;;2.13;1.13;;;;;;;18.95;36.65;102906.56;4228003;28;20035;-48
2022/01/21 05:52:16;;;;;;;2.78;1.30;;;;;;;18.98;36.95;102914.47;4229328;28;20039;-47
2022/01/21 05:54:23;;;;;;;2.65;1.20;;;;;;;18.92;36.77;102901.44;4229723;28;20092;-46
2022/01/21 05:56:26;;;;;;;1.80;1.10;;;;;;;18.94;37.04;102913.19;4228746;28;20035;-47
2022/01/21 05:58:27;;;;;;;1.40;1.20;;;;;;;18.94;36.99;102910.41;4229746;28;20043;-44
2022/01/21 06:00:28;;;;;;;2.28;1.25;;;;;;;18.94;36.62;102915.97;4229278;27;20075;-46
2022/01/21 06:02:30;;;;;;;2.05;1.25;;;;;;;18.93;37.02;102914.28;4230252;28;20043;-47
2022/01/21 06:04:38;;;;;;;3.17;1.30;;;;;;;18.91;36.66;102910.84;4230324;28;20486;-43
2022/01/21 06:06:39;;;;;;;2.28;1.00;;;;;;;18.90;36.75;102911.94;4228563;28;20096;-45
2022/01/21 06:08:41;;;;;;;3.45;1.40;;;;;;;18.88;36.66;102905.75;4229752;28;20437;-49
2022/01/21 06:10:42;;;;;;;2.80;1.30;;;;;;;18.89;37.04;102929.66;4229363;28;20035;-45
2022/01/21 06:12:43;;;;;;;2.17;1.15;;;;;;;18.87;36.67;102927.06;4229856;28;20475;-49
2022/01/21 06:14:45;;;;;;;1.95;1.35;;;;;;;18.85;36.54;102922.84;4227896;28;20035;-47
2022/01/21 06:16:46;;;;;;;2.63;1.35;;;;;;;18.85;36.94;102920.06;4229113;28;20040;-46
2022/01/21 06:18:48;;;;;;;1.42;1.10;;;;;;;18.85;36.73;102925.59;4228647;28;20093;-45
2022/01/21 06:20:49;;;;;;;2.75;1.27;;;;;;;18.86;36.58;102921.75;4230335;28;20040;-46
2022/01/21 06:22:54;;;;;;;1.45;0.93;;;;;;;18.80;36.65;102915.16;4228679;28;20108;-49
2022/01/21 06:24:56;;;;;;;2.53;1.25;;;;;;;18.83;36.80;102916.63;4228489;28;20036;-46
2022/01/21 06:27:01;;;;;;;2.67;1.27;;;;;;;18.84;36.70;102926.69;4227155;28;20027;-46
2022/01/21 06:29:04;;;;;;;2.25;1.27;;;;;;;18.84;36.57;102932.22;4229482;28;20031;-45
2022/01/21 06:31:05;;;;;;;2.03;1.05;;;;;;;18.84;36.36;102926.69;4229763;28;20035;-45
2022/01/21 06:33:10;;;;;;;2.10;1.50;;;;;;;18.81;36.53;102933.50;4210800;28;20510;-45
2022/01/21 06:35:13;;;;;;;2.00;1.30;;;;;;;18.83;36.04;102936.06;4228627;28;20031;-47
2022/01/21 06:37:15;;;;;;;2.47;1.40;;;;;;;18.83;36.11;102941.59;4228538;28;20080;-50
2022/01/21 06:39:16;;;;;;;2.35;1.30;;;;;;;18.79;36.13;102944.81;4226920;28;20040;-50
2022/01/21 06:41:18;;;;;;;2.10;1.38;;;;;;;18.81;36.18;102946.53;4226956;28;20148;-49
2022/01/21 06:43:19;;;;;;;3.65;1.65;;;;;;;18.81;36.09;102943.75;4229519;28;20092;-45
2022/01/21 06:45:20;;;;;;;1.60;1.10;;;;;;;18.81;36.03;102949.31;4227371;28;20467;-48
2022/01/21 06:47:22;;;;;;;2.70;1.40;;;;;;;18.80;36.26;102942.91;4227261;28;20032;-46
2022/01/21 06:49:23;;;;;;;2.40;1.45;;;;;;;18.78;36.03;102948.69;4228800;28;20596;-45
2022/01/21 06:51:25;;;;;;;2.70;1.50;;;;;;;18.76;36.27;102942.47;4225045;28;20032;-50
2022/01/21 06:53:26;;;;;;;2.40;1.45;;;;;;;18.75;36.01;102949.09;4224998;28;20371;-43
2022/01/21 06:55:28;;;;;;;2.97;1.38;;;;;;;18.75;36.05;102939.94;4228613;28;20417;-46
2022/01/21 06:57:29;;;;;;;2.72;1.35;;;;;;;18.73;36.00;102942.06;4228664;28;20574;-48
2022/01/21 06:59:30;;;;;;;2.60;1.50;;;;;;;18.74;36.05;102949.34;4228646;28;20108;-50
2022/01/21 07:01:32;;;;;;;3.10;1.55;;;;;;;18.71;35.96;102955.31;4230311;28;20035;-44
2022/01/21 07:03:33;;;;;;;2.90;1.40;;;;;;;18.70;35.61;102946.13;4230178;28;20101;-44
2022/01/21 07:05:35;;;;;;;2.40;1.58;;;;;;;18.70;36.00;102948.06;4225725;28;20036;-47
2022/01/21 07:07:36;;;;;;;2.25;1.42;;;;;;;18.67;35.64;102949.31;4238582;28;20035;-47
2022/01/21 07:09:37;;;;;;;3.55;1.40;;;;;;;18.68;35.97;102955.69;4247143;28;20035;-46
2022/01/21 07:11:39;;;;;;;2.08;1.25;;;;;;;18.66;35.75;102963.41;4237256;28;20108;-47
2022/01/21 07:13:40;;;;;;;3.38;1.40;;;;;;;18.67;35.83;102954.84;4217732;28;20074;-48
2022/01/21 07:15:42;;;;;;;1.88;1.20;;;;;;;18.67;35.71;102957.63;4213512;28;20052;-47
2022/01/21 07:17:44;;;;;;;2.05;1.17;;;;;;;18.68;35.40;102962.09;4213333;28;20101;-52
2022/01/21 07:19:48;;;;;;;2.60;1.27;;;;;;;18.66;35.60;102953.16;4212793;28;20040;-45
2022/01/21 07:21:49;;;;;;;2.22;1.10;;;;;;;18.68;35.19;102956.53;4214032;28;20044;-45
2022/01/21 07:23:51;;;;;;;2.53;1.27;;;;;;;18.67;35.30;102965.94;4232757;28;20077;-45
2022/01/21 07:25:53;;;;;;;2.13;1.10;;;;;;;18.69;35.22;102963.84;4246960;28;20088;-44
2022/01/21 07:27:55;;;;;;;2.22;1.30;;;;;;;18.68;35.19;102956.53;4225960;28;20053;-45
2022/01/21 07:30:00;;;;;;;1.67;1.17;;;;;;;18.68;35.41;102962.09;4215593;28;20040;-45
2022/01/21 07:32:05;;;;;;;1.52;1.00;;;;;;;18.68;34.92;102972.34;4213988;28;20078;-46
2022/01/21 07:34:06;;;;;;;3.13;1.55;;;;;;;18.67;35.38;102965.94;4221202;28;20032;-46
2022/01/21 07:36:07;;;;;;;2.05;1.45;;;;;;;18.67;34.98;102960.41;4215923;28;20048;-49
2022/01/21 07:38:09;;;;;;;2.20;1.60;;;;;;;18.66;35.23;102950.38;4216264;28;20109;-48
2022/01/21 07:40:11;;;;;;;1.55;0.85;;;;;;;18.63;34.81;102956.34;4215088;28;20044;-46
2022/01/21 07:42:16;;;;;;;1.77;0.90;;;;;;;18.63;35.09;102961.91;4217031;28;20089;-47
2022/01/21 07:44:17;;;;;;;1.48;1.30;;;;;;;18.60;35.29;102967.91;4216813;28;20040;-46
2022/01/21 07:46:19;;;;;;;1.75;1.05;;;;;;;18.59;35.23;102966.16;4215470;28;20032;-44
2022/01/21 07:48:21;;;;;;;1.50;1.25;;;;;;;18.58;34.92;102972.78;4216189;28;20044;-44
2022/01/21 07:50:22;;;;;;;1.77;1.20;;;;;;;18.58;35.29;102972.78;4215736;28;20493;-44
2022/01/21 07:52:24;;;;;;;1.88;1.33;;;;;;;18.56;34.75;102974.09;4215453;28;20094;-46
2022/01/21 07:54:30;;;;;;;1.98;1.20;;;;;;;18.56;34.79;102977.72;4215682;28;20093;-47
2022/01/21 07:56:33;;;;;;;3.15;1.30;;;;;;;18.54;35.00;102965.97;4216008;28;20055;-46
2022/01/21 07:58:34;;;;;;;2.00;1.27;;;;;;;18.54;34.77;102965.97;4216205;28;20086;-44
2022/01/21 08:00:38;;;;;;;1.65;1.25;;;;;;;18.50;35.00;102967.47;4221268;27;20036;-47
2022/01/21 08:02:40;;;;;;;2.05;1.38;;;;;;;18.52;34.93;102985.59;4216434;28;20116;-47
2022/01/21 08:04:41;;;;;;;2.25;1.30;;;;;;;18.51;34.68;102989.44;4215250;28;20044;-46
2022/01/21 08:06:43;;;;;;;3.22;1.40;;;;;;;18.47;34.99;102981.78;4215916;28;20434;-49
2022/01/21 08:08:44;;;;;;;1.70;1.00;;;;;;;18.44;35.05;102977.50;4215514;28;20101;-45
2022/01/21 08:10:45;;;;;;;2.60;1.35;;;;;;;18.48;34.73;102989.03;4215314;28;20048;-49
2022/01/21 08:12:47;;;;;;;4.05;1.35;;;;;;;18.46;34.72;102999.44;4216256;28;20109;-49
2022/01/21 08:14:48;;;;;;;2.53;1.10;;;;;;;18.44;35.11;102985.81;4215334;28;20101;-48
2022/01/21 08:16:51;;;;;;;1.35;1.00;;;;;;;18.43;34.92;102997.13;4215660;28;20491;-49
2022/01/21 08:18:54;;;;;;;2.13;1.30;;;;;;;18.39;34.54;102985.63;4215256;28;20090;-49
2022/01/21 08:20:55;;;;;;;2.17;1.20;;;;;;;18.41;34.79;102983.47;4215117;28;20036;-49
2022/01/21 08:22:56;;;;;;;3.13;1.58;;;;;;;18.40;34.70;102986.47;4215333;28;20105;-48
2022/01/21 08:24:58;;;;;;;2.60;1.15;;;;;;;18.38;34.68;102983.91;4215563;28;20093;-48
2022/01/21 08:27:00;;;;;;;1.98;1.13;;;;;;;18.37;34.76;102986.88;4215324;28;20035;-50
2022/01/21 08:29:02;;;;;;;3.33;1.42;;;;;;;18.38;34.61;102997.78;4215263;28;20105;-45
2022/01/21 08:31:03;;;;;;;3.10;1.70;;;;;;;18.39;34.51;102998.63;4233295;27;20135;-44
2022/01/21 08:33:05;;;;;;;2.85;1.50;;;;;;;18.37;34.84;102992.41;4249523;27;20096;-47
2022/01/21 08:35:08;;;;;;;0.95;0.85;;;;;;;18.34;34.51;102993.72;4241531;27;20052;-45
2022/01/21 08:37:10;;;;;;;1.83;1.08;;;;;;;18.35;34.80;102994.56;4215695;28;20035;-44
2022/01/21 08:39:13;;;;;;;1.70;1.30;;;;;;;18.32;35.05;102987.53;4221301;28;20100;-46
2022/01/21 08:41:14;;;;;;;3.10;1.50;;;;;;;18.32;34.73;102981.97;4232029;28;20101;-47
2022/01/21 08:43:18;;;;;;;1.70;1.20;;;;;;;18.29;35.11;102983.28;4233045;28;20032;-46
2022/01/21 08:45:23;;;;;;;2.20;1.30;;;;;;;18.28;34.48;102991.81;4219243;28;20104;-45
2022/01/21 08:47:27;;;;;;;1.90;1.40;;;;;;;18.27;34.45;103004.78;4214453;28;20386;-48
2022/01/21 08:49:35;;;;;;;1.65;1.13;;;;;;;18.27;34.51;103003.94;4225950;28;20028;-49
2022/01/21 08:51:49;;;;;;;2.33;1.27;;;;;;;18.26;34.86;103003.09;4220288;28;20047;-48
2022/01/21 08:53:51;;;;;;;2.28;1.35;;;;;;;18.24;34.84;103005.25;4226406;28;20101;-45
2022/01/21 08:55:52;;;;;;;2.35;1.20;;;;;;;18.25;34.74;102998.63;4217692;28;20483;-48
2022/01/21 08:57:53;;;;;;;1.52;1.27;;;;;;;18.24;34.32;103005.25;4215119;28;20475;-44
2022/01/21 08:59:55;;;;;;;2.22;1.40;;;;;;;18.22;34.40;103001.81;4223619;28;20543;-46
2022/01/21 09:01:56;;;;;;;2.00;1.13;;;;;;;18.21;34.76;103008.44;4229064;28;20043;-46
2022/01/21 09:03:57;;;;;;;2.58;1.40;;;;;;;18.21;34.64;103016.75;4223389;28;20048;-47
2022/01/21 09:05:59;;;;;;;1.45;1.20;;;;;;;18.20;34.71;103012.25;4221890;28;20490;-47
2022/01/21 09:08:01;;;;;;;2.25;1.20;;;;;;;18.16;34.36;103008.22;4231930;28;20043;-46
2022/01/21 09:10:04;;;;;;;1.60;1.30;;;;;;;18.16;34.63;103019.28;4222162;28;20510;-44
2022/01/21 09:12:06;;;;;;;4.70;1.42;;;;;;;18.18;34.28;103024.63;4214816;28;20445;-45
2022/01/21 09:14:07;;;;;;;2.47;1.63;;;;;;;18.17;34.29;103026.53;4231302;28;20024;-45
2022/01/21 09:16:10;;;;;;;1.88;1.27;;;;;;;18.16;34.33;103019.28;4227592;28;20179;-47
2022/01/21 09:18:17;;;;;;;2.53;1.48;;;;;;;18.14;34.30;103015.88;4231356;28;20039;-48
2022/01/21 09:20:18;;;;;;;2.00;1.40;;;;;;;18.14;34.43;103026.09;4214564;28;20044;-46
2022/01/21 09:22:20;;;;;;;1.65;1.20;;;;;;;18.07;34.61;103031.66;4214674;28;20124;-47
2022/01/21 09:24:21;;;;;;;1.98;1.15;;;;;;;18.12;34.46;103044.88;4215294;28;20072;-44
2022/01/21 09:26:24;;;;;;;2.20;1.20;;;;;;;18.11;34.66;103038.47;4217077;28;20089;-45
2022/01/21 09:28:25;;;;;;;2.58;1.25;;;;;;;18.12;34.66;103045.72;4214597;28;20108;-43
2022/01/21 09:30:27;;;;;;;2.28;1.45;;;;;;;18.10;34.25;103035.91;4215428;28;20113;-44
2022/01/21 09:32:29;;;;;;;1.80;1.20;;;;;;;18.07;34.46;103031.66;4212276;28;20028;-43
2022/01/21 09:34:31;;;;;;;1.73;1.30;;;;;;;18.06;34.33;103032.72;4248269;27;20035;-44
2022/01/21 09:36:33;;;;;;;1.90;1.10;;;;;;;18.03;34.47;103046.97;4246170;27;20023;-45
2022/01/21 09:38:35;;;;;;;2.17;1.30;;;;;;;18.06;34.36;103046.56;4230765;28;20080;-46
2022/01/21 09:40:44;;;;;;;1.90;1.33;;;;;;;18.04;34.52;103043.13;4231185;28;20518;-46
2022/01/21 09:42:46;;;;;;;1.67;1.20;;;;;;;18.01;34.58;103043.59;4213494;28;20089;-50
2022/01/21 09:44:49;;;;;;;2.03;1.42;;;;;;;18.02;34.19;103061.91;4231813;28;20023;-48
2022/01/21 09:46:56;;;;;;;2.83;1.30;;;;;;;18.00;34.51;103064.00;4231398;28;20055;-49
2022/01/21 09:49:20;;;;;;;2.08;1.30;;;;;;;18.00;34.59;103064.00;4234615;27;20027;-44
2022/01/21 09:51:22;;;;;;;1.77;1.30;;;;;;;18.00;34.33;103064.88;4248228;27;20107;-43
2022/01/21 09:53:27;;;;;;;1.40;1.20;;;;;;;17.98;34.20;103071.69;4248280;27;20167;-46
2022/01/21 09:55:28;;;;;;;1.45;1.00;;;;;;;17.98;34.22;103071.69;4248238;27;20446;-50
2022/01/21 09:57:30;;;;;;;2.25;1.30;;;;;;;17.95;34.55;103072.94;4247911;27;20092;-47
2022/01/21 09:59:34;;;;;;;1.25;1.10;;;;;;;17.96;34.38;103079.34;4248032;27;20167;-45
2022/01/21 10:02:20;;;;;;;2.73;1.20;;;;;;;17.94;34.53;103075.94;4232763;27;20040;-46
2022/01/21 10:04:26;;;;;;;1.92;1.20;;;;;;;17.95;34.24;103083.19;4185719;28;20284;-46
2022/01/21 10:06:29;;;;;;;1.60;1.00;;;;;;;17.91;34.15;103087.44;4242566;27;20527;-47
2022/01/21 10:08:35;;;;;;;2.15;1.30;;;;;;;17.86;34.40;103082.53;4248383;27;20083;-47
2022/01/21 10:10:40;;;;;;;2.53;1.40;;;;;;;17.90;34.11;103082.97;4216740;28;20105;-49
2022/01/21 10:12:45;;;;;;;1.70;1.35;;;;;;;17.88;34.23;103085.09;4215083;28;20491;-47
2022/01/21 10:14:51;;;;;;;1.70;1.00;;;;;;;17.90;34.16;103102.34;4226280;27;20389;-50
2022/01/21 10:16:55;;;;;;;;;;;;;;;17.85;34.11;103104.91;4248192;27;20084;-44